sensor_id;sensor_type;location;lat;lon;timestamp;temperature;humidity
9975;DHT22;5028;50.974;4.968;2022-08-07T00:02:11;14.50;99.90
9975;DHT22;5028;50.974;4.968;2022-08-07T00:05:08;14.50;99.90
9975;DHT22;5028;50.974;4.968;2022-08-07T00:07:50;14.50;99.90
9975;DHT22;5028;50.974;4.968;2022-08-07T00:10:26;14.50;99.90
9975;DHT22;5028;50.974;4.968;2022-08-07T00:13:13;14.40;99.90
9975;DHT22;5028;50.974;4.968;2022-08-07T00:15:51;14.40;99.90
9975;DHT22;5028;50.974;4.968;2022-08-07T00:18:28;14.40;99.90
9975;DHT22;5028;50.974;4.968;2022-08-07T00:20:59;14.40;99.90
9975;DHT22;5028;50.974;4.968;2022-08-07T00:23:54;14.40;99.90
9975;DHT22;5028;50.974;4.968;2022-08-07T00:26:22;14.40;99.90
9975;DHT22;5028;50.974;4.968;2022-08-07T00:29:17;14.40;99.90
9975;DHT22;5028;50.974;4.968;2022-08-07T00:31:57;14.40;99.90
9975;DHT22;5028;50.974;4.968;2022-08-07T00:34:32;14.40;99.90
9975;DHT22;5028;50.974;4.968;2022-08-07T00:37:02;14.30;99.90
9975;DHT22;5028;50.974;4.968;2022-08-07T00:39:40;14.30;99.90
9975;DHT22;5028;50.974;4.968;2022-08-07T00:42:11;14.30;99.90
9975;DHT22;5028;50.974;4.968;2022-08-07T00:44:54;14.30;99.90
9975;DHT22;5028;50.974;4.968;2022-08-07T00:47:24;14.20;99.90
9975;DHT22;5028;50.974;4.968;2022-08-07T00:50:19;14.20;99.90
9975;DHT22;5028;50.974;4.968;2022-08-07T00:53:09;14.20;99.90
9975;DHT22;5028;50.974;4.968;2022-08-07T00:55:46;14.20;99.90
9975;DHT22;5028;50.974;4.968;2022-08-07T00:58:29;14.10;99.90
9975;DHT22;5028;50.974;4.968;2022-08-07T01:01:17;14.10;99.90
9975;DHT22;5028;50.974;4.968;2022-08-07T01:03:46;14.10;99.90
9975;DHT22;5028;50.974;4.968;2022-08-07T01:06:26;14.00;99.90
9975;DHT22;5028;50.974;4.968;2022-08-07T01:08:56;14.00;99.90
9975;DHT22;5028;50.974;4.968;2022-08-07T01:11:33;14.00;99.90
9975;DHT22;5028;50.974;4.968;2022-08-07T01:14:22;14.00;99.90
9975;DHT22;5028;50.974;4.968;2022-08-07T01:17:02;14.00;99.90
9975;DHT22;5028;50.974;4.968;2022-08-07T01:19:33;13.90;99.90
9975;DHT22;5028;50.974;4.968;2022-08-07T01:22:21;13.90;99.90
9975;DHT22;5028;50.974;4.968;2022-08-07T01:24:55;13.80;99.90
9975;DHT22;5028;50.974;4.968;2022-08-07T01:27:50;13.80;99.90
9975;DHT22;5028;50.974;4.968;2022-08-07T01:30:20;13.70;99.90
9975;DHT22;5028;50.974;4.968;2022-08-07T01:32:55;13.60;99.90
9975;DHT22;5028;50.974;4.968;2022-08-07T01:35:24;13.50;99.90
9975;DHT22;5028;50.974;4.968;2022-08-07T01:38:21;13.40;99.90
9975;DHT22;5028;50.974;4.968;2022-08-07T01:40:54;13.30;99.90
9975;DHT22;5028;50.974;4.968;2022-08-07T01:43:33;13.30;99.90
9975;DHT22;5028;50.974;4.968;2022-08-07T01:46:04;13.30;99.90
9975;DHT22;5028;50.974;4.968;2022-08-07T01:48:39;13.20;99.90
9975;DHT22;5028;50.974;4.968;2022-08-07T01:51:16;13.20;99.90
9975;DHT22;5028;50.974;4.968;2022-08-07T01:54:12;13.10;99.90
9975;DHT22;5028;50.974;4.968;2022-08-07T01:57:05;13.00;99.90
9975;DHT22;5028;50.974;4.968;2022-08-07T02:00:05;13.00;99.90
9975;DHT22;5028;50.974;4.968;2022-08-07T02:02:42;13.10;99.90
9975;DHT22;5028;50.974;4.968;2022-08-07T02:05:47;13.10;99.90
9975;DHT22;5028;50.974;4.968;2022-08-07T02:08:27;13.10;99.90
9975;DHT22;5028;50.974;4.968;2022-08-07T02:11:07;13.10;99.90
9975;DHT22;5028;50.974;4.968;2022-08-07T02:13:55;13.10;99.90
9975;DHT22;5028;50.974;4.968;2022-08-07T02:16:34;13.10;99.90
9975;DHT22;5028;50.974;4.968;2022-08-07T02:19:05;13.10;99.90
9975;DHT22;5028;50.974;4.968;2022-08-07T02:22:01;13.00;99.90
9975;DHT22;5028;50.974;4.968;2022-08-07T02:24:33;13.00;99.90
9975;DHT22;5028;50.974;4.968;2022-08-07T02:27:14;13.10;99.90
9975;DHT22;5028;50.974;4.968;2022-08-07T02:29:44;13.20;99.90
9975;DHT22;5028;50.974;4.968;2022-08-07T02:32:21;13.10;99.90
9975;DHT22;5028;50.974;4.968;2022-08-07T02:34:57;13.00;99.90
9975;DHT22;5028;50.974;4.968;2022-08-07T02:37:38;13.00;99.90
9975;DHT22;5028;50.974;4.968;2022-08-07T02:40:10;13.00;99.90
9975;DHT22;5028;50.974;4.968;2022-08-07T02:43:02;13.10;99.90
9975;DHT22;5028;50.974;4.968;2022-08-07T02:45:36;13.10;99.90
9975;DHT22;5028;50.974;4.968;2022-08-07T02:48:28;13.00;99.90
9975;DHT22;5028;50.974;4.968;2022-08-07T02:50:58;13.00;99.90
9975;DHT22;5028;50.974;4.968;2022-08-07T02:53:57;13.00;99.90
9975;DHT22;5028;50.974;4.968;2022-08-07T02:56:29;12.90;99.90
9975;DHT22;5028;50.974;4.968;2022-08-07T02:59:09;12.90;99.90
9975;DHT22;5028;50.974;4.968;2022-08-07T03:01:45;12.90;99.90
9975;DHT22;5028;50.974;4.968;2022-08-07T03:04:22;12.90;99.90
9975;DHT22;5028;50.974;4.968;2022-08-07T03:06:59;12.80;99.90
9975;DHT22;5028;50.974;4.968;2022-08-07T03:09:36;12.80;99.90
9975;DHT22;5028;50.974;4.968;2022-08-07T03:12:11;12.70;99.90
9975;DHT22;5028;50.974;4.968;2022-08-07T03:14:58;12.70;99.90
9975;DHT22;5028;50.974;4.968;2022-08-07T03:17:34;12.70;99.90
9975;DHT22;5028;50.974;4.968;2022-08-07T03:20:20;12.60;99.90
9975;DHT22;5028;50.974;4.968;2022-08-07T03:22:49;12.60;99.90
9975;DHT22;5028;50.974;4.968;2022-08-07T03:25:26;12.60;99.90
9975;DHT22;5028;50.974;4.968;2022-08-07T03:28:06;12.60;99.90
9975;DHT22;5028;50.974;4.968;2022-08-07T03:31:04;12.60;99.90
9975;DHT22;5028;50.974;4.968;2022-08-07T03:33:54;12.70;99.90
9975;DHT22;5028;50.974;4.968;2022-08-07T03:36:30;12.70;99.90
9975;DHT22;5028;50.974;4.968;2022-08-07T03:39:02;12.70;99.90
9975;DHT22;5028;50.974;4.968;2022-08-07T03:41:39;12.70;99.90
9975;DHT22;5028;50.974;4.968;2022-08-07T03:44:16;12.60;99.90
9975;DHT22;5028;50.974;4.968;2022-08-07T03:47:03;12.60;99.90
9975;DHT22;5028;50.974;4.968;2022-08-07T03:49:41;12.60;99.90
9975;DHT22;5028;50.974;4.968;2022-08-07T03:52:19;12.50;99.90
9975;DHT22;5028;50.974;4.968;2022-08-07T03:54:53;12.50;99.90
9975;DHT22;5028;50.974;4.968;2022-08-07T03:57:34;12.60;99.90
9975;DHT22;5028;50.974;4.968;2022-08-07T04:00:23;12.60;99.90
9975;DHT22;5028;50.974;4.968;2022-08-07T04:03:09;12.50;99.90
9975;DHT22;5028;50.974;4.968;2022-08-07T04:05:39;12.50;99.90
9975;DHT22;5028;50.974;4.968;2022-08-07T04:08:16;12.40;99.90
9975;DHT22;5028;50.974;4.968;2022-08-07T04:10:47;12.40;99.90
9975;DHT22;5028;50.974;4.968;2022-08-07T04:13:44;12.40;99.90
9975;DHT22;5028;50.974;4.968;2022-08-07T04:16:33;12.30;99.90
9975;DHT22;5028;50.974;4.968;2022-08-07T04:19:26;12.30;99.90
9975;DHT22;5028;50.974;4.968;2022-08-07T04:22:14;12.20;99.90
9975;DHT22;5028;50.974;4.968;2022-08-07T04:24:55;12.30;99.90
9975;DHT22;5028;50.974;4.968;2022-08-07T04:27:24;12.30;99.90
9975;DHT22;5028;50.974;4.968;2022-08-07T04:30:02;12.30;99.90
9975;DHT22;5028;50.974;4.968;2022-08-07T04:32:39;12.30;99.90
9975;DHT22;5028;50.974;4.968;2022-08-07T04:35:25;12.30;99.90
9975;DHT22;5028;50.974;4.968;2022-08-07T04:38:04;12.20;99.90
9975;DHT22;5028;50.974;4.968;2022-08-07T04:40:42;12.20;99.90
9975;DHT22;5028;50.974;4.968;2022-08-07T04:43:20;12.20;99.90
9975;DHT22;5028;50.974;4.968;2022-08-07T04:46:24;12.20;99.90
9975;DHT22;5028;50.974;4.968;2022-08-07T04:49:08;12.20;99.90
9975;DHT22;5028;50.974;4.968;2022-08-07T04:52:01;12.10;99.90
9975;DHT22;5028;50.974;4.968;2022-08-07T04:54:33;12.10;99.90
9975;DHT22;5028;50.974;4.968;2022-08-07T04:57:21;12.10;99.90
9975;DHT22;5028;50.974;4.968;2022-08-07T05:00:24;12.10;99.90
9975;DHT22;5028;50.974;4.968;2022-08-07T05:03:15;12.10;99.90
9975;DHT22;5028;50.974;4.968;2022-08-07T05:06:18;12.10;99.90
9975;DHT22;5028;50.974;4.968;2022-08-07T05:09:19;12.20;99.90
9975;DHT22;5028;50.974;4.968;2022-08-07T05:12:09;12.30;99.90
9975;DHT22;5028;50.974;4.968;2022-08-07T05:14:59;12.30;99.90
9975;DHT22;5028;50.974;4.968;2022-08-07T05:17:31;12.30;99.90
9975;DHT22;5028;50.974;4.968;2022-08-07T05:20:21;12.30;99.90
9975;DHT22;5028;50.974;4.968;2022-08-07T05:22:57;12.40;99.90
9975;DHT22;5028;50.974;4.968;2022-08-07T05:25:43;12.50;99.90
9975;DHT22;5028;50.974;4.968;2022-08-07T05:28:40;12.50;99.90
9975;DHT22;5028;50.974;4.968;2022-08-07T05:31:17;12.60;99.90
9975;DHT22;5028;50.974;4.968;2022-08-07T05:33:46;12.60;99.90
9975;DHT22;5028;50.974;4.968;2022-08-07T05:36:31;12.70;99.90
9975;DHT22;5028;50.974;4.968;2022-08-07T05:39:07;12.80;99.90
9975;DHT22;5028;50.974;4.968;2022-08-07T05:41:57;12.90;99.90
9975;DHT22;5028;50.974;4.968;2022-08-07T05:44:39;13.00;99.90
9975;DHT22;5028;50.974;4.968;2022-08-07T05:47:28;13.10;99.90
9975;DHT22;5028;50.974;4.968;2022-08-07T05:50:25;13.30;99.90
9975;DHT22;5028;50.974;4.968;2022-08-07T05:52:55;13.50;99.90
9975;DHT22;5028;50.974;4.968;2022-08-07T05:55:32;13.70;99.90
9975;DHT22;5028;50.974;4.968;2022-08-07T05:58:23;13.80;99.90
9975;DHT22;5028;50.974;4.968;2022-08-07T06:01:10;13.90;99.90
9975;DHT22;5028;50.974;4.968;2022-08-07T06:04:03;14.00;99.90
9975;DHT22;5028;50.974;4.968;2022-08-07T06:06:33;14.20;99.90
9975;DHT22;5028;50.974;4.968;2022-08-07T06:09:14;14.30;99.90
9975;DHT22;5028;50.974;4.968;2022-08-07T06:12:09;14.30;99.90
9975;DHT22;5028;50.974;4.968;2022-08-07T06:14:48;14.30;99.90
9975;DHT22;5028;50.974;4.968;2022-08-07T06:17:18;14.40;99.90
9975;DHT22;5028;50.974;4.968;2022-08-07T06:20:04;14.60;99.90
9975;DHT22;5028;50.974;4.968;2022-08-07T06:22:39;14.60;99.90
9975;DHT22;5028;50.974;4.968;2022-08-07T06:25:38;14.70;99.90
9975;DHT22;5028;50.974;4.968;2022-08-07T06:28:20;14.90;99.90
9975;DHT22;5028;50.974;4.968;2022-08-07T06:30:56;14.90;99.90
9975;DHT22;5028;50.974;4.968;2022-08-07T06:33:24;15.00;99.90
9975;DHT22;5028;50.974;4.968;2022-08-07T06:35:52;15.00;99.90
9975;DHT22;5028;50.974;4.968;2022-08-07T06:38:40;15.00;99.90
9975;DHT22;5028;50.974;4.968;2022-08-07T06:41:39;15.00;99.90
9975;DHT22;5028;50.974;4.968;2022-08-07T06:44:29;15.10;99.90
9975;DHT22;5028;50.974;4.968;2022-08-07T06:47:07;15.20;99.90
9975;DHT22;5028;50.974;4.968;2022-08-07T06:49:41;15.10;99.90
9975;DHT22;5028;50.974;4.968;2022-08-07T06:52:29;15.20;99.90
9975;DHT22;5028;50.974;4.968;2022-08-07T06:55:06;15.30;99.90
9975;DHT22;5028;50.974;4.968;2022-08-07T06:57:58;15.40;99.90
9975;DHT22;5028;50.974;4.968;2022-08-07T07:00:38;15.50;99.90
9975;DHT22;5028;50.974;4.968;2022-08-07T07:03:27;15.60;99.90
9975;DHT22;5028;50.974;4.968;2022-08-07T07:06:15;15.70;99.90
9975;DHT22;5028;50.974;4.968;2022-08-07T07:08:52;15.70;99.90
9975;DHT22;5028;50.974;4.968;2022-08-07T07:11:22;15.70;99.90
9975;DHT22;5028;50.974;4.968;2022-08-07T07:14:18;15.80;99.90
9975;DHT22;5028;50.974;4.968;2022-08-07T07:16:50;15.80;99.90
9975;DHT22;5028;50.974;4.968;2022-08-07T07:19:31;15.90;99.90
9975;DHT22;5028;50.974;4.968;2022-08-07T07:22:25;16.10;99.90
9975;DHT22;5028;50.974;4.968;2022-08-07T07:25:15;16.20;99.90
9975;DHT22;5028;50.974;4.968;2022-08-07T07:28:16;16.30;99.90
9975;DHT22;5028;50.974;4.968;2022-08-07T07:31:16;16.50;99.90
9975;DHT22;5028;50.974;4.968;2022-08-07T07:33:51;16.60;99.90
9975;DHT22;5028;50.974;4.968;2022-08-07T07:36:29;16.70;99.90
9975;DHT22;5028;50.974;4.968;2022-08-07T07:39:01;16.80;99.90
9975;DHT22;5028;50.974;4.968;2022-08-07T07:41:38;16.90;99.90
9975;DHT22;5028;50.974;4.968;2022-08-07T07:44:35;17.00;99.90
9975;DHT22;5028;50.974;4.968;2022-08-07T07:47:15;17.10;99.90
9975;DHT22;5028;50.974;4.968;2022-08-07T07:50:06;17.10;99.90
9975;DHT22;5028;50.974;4.968;2022-08-07T07:53:03;17.20;99.90
9975;DHT22;5028;50.974;4.968;2022-08-07T07:55:51;17.40;99.90
9975;DHT22;5028;50.974;4.968;2022-08-07T07:58:29;17.50;99.90
9975;DHT22;5028;50.974;4.968;2022-08-07T08:01:08;17.60;99.90
9975;DHT22;5028;50.974;4.968;2022-08-07T08:04:04;17.60;99.90
9975;DHT22;5028;50.974;4.968;2022-08-07T08:06:42;17.80;99.90
9975;DHT22;5028;50.974;4.968;2022-08-07T08:09:23;17.90;99.90
9975;DHT22;5028;50.974;4.968;2022-08-07T08:11:56;18.10;99.90
9975;DHT22;5028;50.974;4.968;2022-08-07T08:14:32;18.10;99.90
9975;DHT22;5028;50.974;4.968;2022-08-07T08:17:04;18.20;99.90
9975;DHT22;5028;50.974;4.968;2022-08-07T08:20:03;18.20;99.90
9975;DHT22;5028;50.974;4.968;2022-08-07T08:22:50;18.40;99.90
9975;DHT22;5028;50.974;4.968;2022-08-07T08:25:49;18.60;99.90
9975;DHT22;5028;50.974;4.968;2022-08-07T08:28:41;18.80;99.90
9975;DHT22;5028;50.974;4.968;2022-08-07T08:31:23;19.00;99.90
9975;DHT22;5028;50.974;4.968;2022-08-07T08:34:12;19.30;99.90
9975;DHT22;5028;50.974;4.968;2022-08-07T08:36:56;19.50;99.90
9975;DHT22;5028;50.974;4.968;2022-08-07T08:39:26;19.70;99.90
9975;DHT22;5028;50.974;4.968;2022-08-07T08:42:26;19.90;99.90
9975;DHT22;5028;50.974;4.968;2022-08-07T08:45:01;20.20;99.90
9975;DHT22;5028;50.974;4.968;2022-08-07T08:47:43;20.40;99.90
9975;DHT22;5028;50.974;4.968;2022-08-07T08:50:22;20.30;99.90
9975;DHT22;5028;50.974;4.968;2022-08-07T08:53:14;20.40;99.90
9975;DHT22;5028;50.974;4.968;2022-08-07T08:55:48;20.50;99.90
9975;DHT22;5028;50.974;4.968;2022-08-07T08:58:34;20.60;99.90
9975;DHT22;5028;50.974;4.968;2022-08-07T09:01:11;20.80;99.90
9975;DHT22;5028;50.974;4.968;2022-08-07T09:04:05;21.00;99.90
9975;DHT22;5028;50.974;4.968;2022-08-07T09:06:43;21.20;99.90
9975;DHT22;5028;50.974;4.968;2022-08-07T09:09:30;21.20;99.90
9975;DHT22;5028;50.974;4.968;2022-08-07T09:12:10;21.30;99.90
9975;DHT22;5028;50.974;4.968;2022-08-07T09:15:09;21.40;99.90
9975;DHT22;5028;50.974;4.968;2022-08-07T09:18:13;21.70;99.90
9975;DHT22;5028;50.974;4.968;2022-08-07T09:21:00;21.60;99.90
9975;DHT22;5028;50.974;4.968;2022-08-07T09:23:37;21.70;99.90
9975;DHT22;5028;50.974;4.968;2022-08-07T09:26:44;21.90;99.90
9975;DHT22;5028;50.974;4.968;2022-08-07T09:29:23;22.20;99.90
9975;DHT22;5028;50.974;4.968;2022-08-07T09:32:27;22.20;99.90
9975;DHT22;5028;50.974;4.968;2022-08-07T09:35:05;21.90;99.90
9975;DHT22;5028;50.974;4.968;2022-08-07T09:38:08;22.00;99.90
9975;DHT22;5028;50.974;4.968;2022-08-07T09:40:50;22.00;99.90
9975;DHT22;5028;50.974;4.968;2022-08-07T09:43:40;22.20;99.90
9975;DHT22;5028;50.974;4.968;2022-08-07T09:46:53;22.30;99.90
9975;DHT22;5028;50.974;4.968;2022-08-07T09:50:00;22.30;99.90
9975;DHT22;5028;50.974;4.968;2022-08-07T09:52:47;22.20;99.90
9975;DHT22;5028;50.974;4.968;2022-08-07T09:55:29;22.30;99.90
9975;DHT22;5028;50.974;4.968;2022-08-07T10:01:39;22.50;99.90
9975;DHT22;5028;50.974;4.968;2022-08-07T10:04:51;22.60;99.90
9975;DHT22;5028;50.974;4.968;2022-08-07T10:07:47;22.80;99.90
9975;DHT22;5028;50.974;4.968;2022-08-07T10:10:39;23.00;99.90
9975;DHT22;5028;50.974;4.968;2022-08-07T10:13:44;23.10;99.90
9975;DHT22;5028;50.974;4.968;2022-08-07T10:16:54;23.10;99.90
9975;DHT22;5028;50.974;4.968;2022-08-07T10:19:47;23.30;99.90
9975;DHT22;5028;50.974;4.968;2022-08-07T10:22:52;23.80;99.90
9975;DHT22;5028;50.974;4.968;2022-08-07T10:25:46;24.00;99.90
9975;DHT22;5028;50.974;4.968;2022-08-07T10:28:39;24.00;99.90
9975;DHT22;5028;50.974;4.968;2022-08-07T10:31:33;24.10;99.90
9975;DHT22;5028;50.974;4.968;2022-08-07T10:34:29;24.40;99.90
9975;DHT22;5028;50.974;4.968;2022-08-07T10:37:12;23.90;99.90
9975;DHT22;5028;50.974;4.968;2022-08-07T10:40:18;24.00;99.90
9975;DHT22;5028;50.974;4.968;2022-08-07T10:42:59;24.60;99.90
9975;DHT22;5028;50.974;4.968;2022-08-07T10:45:34;25.00;98.80
9975;DHT22;5028;50.974;4.968;2022-08-07T10:48:33;24.70;98.20
9975;DHT22;5028;50.974;4.968;2022-08-07T10:51:08;24.70;98.40
9975;DHT22;5028;50.974;4.968;2022-08-07T10:54:10;24.70;97.30
9975;DHT22;5028;50.974;4.968;2022-08-07T10:56:54;24.90;97.90
9975;DHT22;5028;50.974;4.968;2022-08-07T10:59:39;25.30;97.70
9975;DHT22;5028;50.974;4.968;2022-08-07T11:02:17;25.80;97.50
9975;DHT22;5028;50.974;4.968;2022-08-07T11:05:19;25.50;96.90
9975;DHT22;5028;50.974;4.968;2022-08-07T11:08:24;25.40;97.30
9975;DHT22;5028;50.974;4.968;2022-08-07T11:11:08;25.30;97.90
9975;DHT22;5028;50.974;4.968;2022-08-07T11:13:44;25.70;97.60
9975;DHT22;5028;50.974;4.968;2022-08-07T11:16:44;25.80;95.90
9975;DHT22;5028;50.974;4.968;2022-08-07T11:19:32;25.70;97.00
9975;DHT22;5028;50.974;4.968;2022-08-07T11:22:17;26.10;97.10
9975;DHT22;5028;50.974;4.968;2022-08-07T11:25:08;26.50;95.80
9975;DHT22;5028;50.974;4.968;2022-08-07T11:27:51;25.90;96.30
9975;DHT22;5028;50.974;4.968;2022-08-07T11:30:36;25.90;96.30
9975;DHT22;5028;50.974;4.968;2022-08-07T11:33:22;25.80;95.60
9975;DHT22;5028;50.974;4.968;2022-08-07T11:36:33;25.10;96.00
9975;DHT22;5028;50.974;4.968;2022-08-07T11:39:24;24.70;96.20
9975;DHT22;5028;50.974;4.968;2022-08-07T11:42:20;24.90;96.90
9975;DHT22;5028;50.974;4.968;2022-08-07T11:45:04;25.30;96.80
9975;DHT22;5028;50.974;4.968;2022-08-07T11:47:52;25.70;95.60
9975;DHT22;5028;50.974;4.968;2022-08-07T11:50:52;25.80;96.10
9975;DHT22;5028;50.974;4.968;2022-08-07T11:53:33;26.40;96.10
9975;DHT22;5028;50.974;4.968;2022-08-07T11:56:35;27.10;95.40
9975;DHT22;5028;50.974;4.968;2022-08-07T11:59:34;27.60;95.40
9975;DHT22;5028;50.974;4.968;2022-08-07T12:03:16;27.70;94.40
9975;DHT22;5028;50.974;4.968;2022-08-07T12:06:23;26.90;94.30
9975;DHT22;5028;50.974;4.968;2022-08-07T12:09:08;26.10;95.00
9975;DHT22;5028;50.974;4.968;2022-08-07T12:11:58;26.20;94.50
9975;DHT22;5028;50.974;4.968;2022-08-07T12:14:43;26.30;95.00
9975;DHT22;5028;50.974;4.968;2022-08-07T12:17:34;26.50;94.30
9975;DHT22;5028;50.974;4.968;2022-08-07T12:20:09;26.30;94.20
9975;DHT22;5028;50.974;4.968;2022-08-07T12:23:14;26.20;94.90
9975;DHT22;5028;50.974;4.968;2022-08-07T12:26:06;26.20;95.20
9975;DHT22;5028;50.974;4.968;2022-08-07T12:29:07;26.40;94.70
9975;DHT22;5028;50.974;4.968;2022-08-07T12:31:45;26.30;93.50
9975;DHT22;5028;50.974;4.968;2022-08-07T12:34:33;25.90;93.80
9975;DHT22;5028;50.974;4.968;2022-08-07T12:37:03;25.80;94.10
9975;DHT22;5028;50.974;4.968;2022-08-07T12:39:50;26.00;93.50
9975;DHT22;5028;50.974;4.968;2022-08-07T12:42:27;26.10;92.60
9975;DHT22;5028;50.974;4.968;2022-08-07T12:45:02;25.80;93.00
9975;DHT22;5028;50.974;4.968;2022-08-07T12:47:46;25.80;93.70
9975;DHT22;5028;50.974;4.968;2022-08-07T12:50:21;26.00;93.80
9975;DHT22;5028;50.974;4.968;2022-08-07T12:53:17;26.30;94.00
9975;DHT22;5028;50.974;4.968;2022-08-07T12:55:55;25.70;94.30
9975;DHT22;5028;50.974;4.968;2022-08-07T12:58:38;26.00;95.30
9975;DHT22;5028;50.974;4.968;2022-08-07T13:01:18;26.60;94.80
9975;DHT22;5028;50.974;4.968;2022-08-07T13:04:44;27.00;94.00
9975;DHT22;5028;50.974;4.968;2022-08-07T13:07:45;26.60;92.80
9975;DHT22;5028;50.974;4.968;2022-08-07T13:10:52;26.60;93.40
9975;DHT22;5028;50.974;4.968;2022-08-07T13:13:35;26.90;93.00
9975;DHT22;5028;50.974;4.968;2022-08-07T13:16:23;27.10;92.30
9975;DHT22;5028;50.974;4.968;2022-08-07T13:19:01;26.80;93.10
9975;DHT22;5028;50.974;4.968;2022-08-07T13:22:03;26.90;93.50
9975;DHT22;5028;50.974;4.968;2022-08-07T13:24:57;27.50;92.70
9975;DHT22;5028;50.974;4.968;2022-08-07T13:27:38;26.40;93.30
9975;DHT22;5028;50.974;4.968;2022-08-07T13:30:27;25.90;93.10
9975;DHT22;5028;50.974;4.968;2022-08-07T13:33:15;25.60;93.90
9975;DHT22;5028;50.974;4.968;2022-08-07T13:36:13;25.60;94.40
9975;DHT22;5028;50.974;4.968;2022-08-07T13:38:59;25.40;93.90
9975;DHT22;5028;50.974;4.968;2022-08-07T13:41:42;25.40;94.50
9975;DHT22;5028;50.974;4.968;2022-08-07T13:44:26;25.90;94.20
9975;DHT22;5028;50.974;4.968;2022-08-07T13:47:04;25.70;94.20
9975;DHT22;5028;50.974;4.968;2022-08-07T13:49:51;26.20;94.60
9975;DHT22;5028;50.974;4.968;2022-08-07T13:52:42;26.50;93.10
9975;DHT22;5028;50.974;4.968;2022-08-07T13:55:19;26.30;93.40
9975;DHT22;5028;50.974;4.968;2022-08-07T13:58:06;26.50;93.00
9975;DHT22;5028;50.974;4.968;2022-08-07T14:01:10;26.30;93.10
9975;DHT22;5028;50.974;4.968;2022-08-07T14:03:39;26.10;93.60
9975;DHT22;5028;50.974;4.968;2022-08-07T14:06:41;26.30;94.00
9975;DHT22;5028;50.974;4.968;2022-08-07T14:09:19;26.40;94.00
9975;DHT22;5028;50.974;4.968;2022-08-07T14:12:22;26.70;93.80
9975;DHT22;5028;50.974;4.968;2022-08-07T14:14:59;27.20;93.70
9975;DHT22;5028;50.974;4.968;2022-08-07T14:17:37;27.50;92.90
9975;DHT22;5028;50.974;4.968;2022-08-07T14:20:28;27.50;93.00
9975;DHT22;5028;50.974;4.968;2022-08-07T14:23:14;27.20;92.00
9975;DHT22;5028;50.974;4.968;2022-08-07T14:26:11;26.60;92.70
9975;DHT22;5028;50.974;4.968;2022-08-07T14:28:56;26.60;93.50
9975;DHT22;5028;50.974;4.968;2022-08-07T14:31:52;26.50;93.30
9975;DHT22;5028;50.974;4.968;2022-08-07T14:34:28;26.40;93.10
9975;DHT22;5028;50.974;4.968;2022-08-07T14:37:13;26.20;92.90
9975;DHT22;5028;50.974;4.968;2022-08-07T14:39:46;26.10;93.50
9975;DHT22;5028;50.974;4.968;2022-08-07T14:42:41;25.70;93.10
9975;DHT22;5028;50.974;4.968;2022-08-07T14:45:39;25.70;93.00
9975;DHT22;5028;50.974;4.968;2022-08-07T14:48:21;25.30;93.30
9975;DHT22;5028;50.974;4.968;2022-08-07T14:50:57;25.20;93.10
9975;DHT22;5028;50.974;4.968;2022-08-07T14:53:43;25.30;93.20
9975;DHT22;5028;50.974;4.968;2022-08-07T14:56:32;25.40;93.30
9975;DHT22;5028;50.974;4.968;2022-08-07T14:59:12;25.40;93.80
9975;DHT22;5028;50.974;4.968;2022-08-07T15:02:09;25.30;93.20
9975;DHT22;5028;50.974;4.968;2022-08-07T15:05:00;25.10;93.70
9975;DHT22;5028;50.974;4.968;2022-08-07T15:07:48;25.10;93.80
9975;DHT22;5028;50.974;4.968;2022-08-07T15:10:26;25.10;94.10
9975;DHT22;5028;50.974;4.968;2022-08-07T15:12:58;25.00;94.00
9975;DHT22;5028;50.974;4.968;2022-08-07T15:15:40;24.80;94.40
9975;DHT22;5028;50.974;4.968;2022-08-07T15:18:20;24.70;93.90
9975;DHT22;5028;50.974;4.968;2022-08-07T15:21:04;24.80;93.80
9975;DHT22;5028;50.974;4.968;2022-08-07T15:24:05;24.90;93.70
9975;DHT22;5028;50.974;4.968;2022-08-07T15:27:06;24.80;94.10
9975;DHT22;5028;50.974;4.968;2022-08-07T15:29:38;24.70;93.70
9975;DHT22;5028;50.974;4.968;2022-08-07T15:32:39;24.70;94.00
9975;DHT22;5028;50.974;4.968;2022-08-07T15:35:28;24.70;93.90
9975;DHT22;5028;50.974;4.968;2022-08-07T15:38:27;24.70;94.50
9975;DHT22;5028;50.974;4.968;2022-08-07T15:41:21;24.60;94.20
9975;DHT22;5028;50.974;4.968;2022-08-07T15:44:19;24.70;94.50
9975;DHT22;5028;50.974;4.968;2022-08-07T15:46:55;24.70;94.10
9975;DHT22;5028;50.974;4.968;2022-08-07T15:49:52;24.50;93.60
9975;DHT22;5028;50.974;4.968;2022-08-07T15:52:33;24.50;93.70
9975;DHT22;5028;50.974;4.968;2022-08-07T15:55:18;24.50;93.30
9975;DHT22;5028;50.974;4.968;2022-08-07T15:57:52;24.50;92.90
9975;DHT22;5028;50.974;4.968;2022-08-07T16:00:31;24.50;92.90
9975;DHT22;5028;50.974;4.968;2022-08-07T16:03:14;24.40;92.80
9975;DHT22;5028;50.974;4.968;2022-08-07T16:06:11;24.50;92.50
9975;DHT22;5028;50.974;4.968;2022-08-07T16:08:40;24.30;92.70
9975;DHT22;5028;50.974;4.968;2022-08-07T16:11:31;24.40;93.60
9975;DHT22;5028;50.974;4.968;2022-08-07T16:14:18;24.40;93.60
9975;DHT22;5028;50.974;4.968;2022-08-07T16:17:06;24.30;93.50
9975;DHT22;5028;50.974;4.968;2022-08-07T16:19:58;24.20;93.90
9975;DHT22;5028;50.974;4.968;2022-08-07T16:26:35;24.30;93.10
9975;DHT22;5028;50.974;4.968;2022-08-07T16:29:37;24.30;93.20
9975;DHT22;5028;50.974;4.968;2022-08-07T16:32:37;24.30;93.20
9975;DHT22;5028;50.974;4.968;2022-08-07T16:35:23;24.40;93.30
9975;DHT22;5028;50.974;4.968;2022-08-07T16:38:26;24.40;93.90
9975;DHT22;5028;50.974;4.968;2022-08-07T16:41:38;24.30;94.70
9975;DHT22;5028;50.974;4.968;2022-08-07T16:44:36;24.30;94.40
9975;DHT22;5028;50.974;4.968;2022-08-07T16:50:49;24.10;94.10
9975;DHT22;5028;50.974;4.968;2022-08-07T16:54:08;24.20;94.10
9975;DHT22;5028;50.974;4.968;2022-08-07T16:56:54;24.10;94.10
9975;DHT22;5028;50.974;4.968;2022-08-07T16:59:50;24.10;94.20
9975;DHT22;5028;50.974;4.968;2022-08-07T17:02:37;24.00;94.50
9975;DHT22;5028;50.974;4.968;2022-08-07T17:05:51;24.10;94.50
9975;DHT22;5028;50.974;4.968;2022-08-07T17:08:55;24.20;94.60
9975;DHT22;5028;50.974;4.968;2022-08-07T17:11:47;24.10;94.70
9975;DHT22;5028;50.974;4.968;2022-08-07T17:14:42;24.00;95.00
9975;DHT22;5028;50.974;4.968;2022-08-07T17:17:34;24.00;95.00
9975;DHT22;5028;50.974;4.968;2022-08-07T17:20:15;24.00;95.40
9975;DHT22;5028;50.974;4.968;2022-08-07T17:23:02;23.90;94.90
9975;DHT22;5028;50.974;4.968;2022-08-07T17:25:49;23.80;95.30
9975;DHT22;5028;50.974;4.968;2022-08-07T17:28:32;23.80;95.20
9975;DHT22;5028;50.974;4.968;2022-08-07T17:31:10;23.70;95.40
9975;DHT22;5028;50.974;4.968;2022-08-07T17:33:58;23.70;95.40
9975;DHT22;5028;50.974;4.968;2022-08-07T17:36:52;23.70;95.70
9975;DHT22;5028;50.974;4.968;2022-08-07T17:39:45;23.70;95.50
9975;DHT22;5028;50.974;4.968;2022-08-07T17:42:38;23.70;95.70
9975;DHT22;5028;50.974;4.968;2022-08-07T17:45:27;23.60;95.70
9975;DHT22;5028;50.974;4.968;2022-08-07T17:48:04;23.40;95.80
9975;DHT22;5028;50.974;4.968;2022-08-07T17:50:51;23.40;96.10
9975;DHT22;5028;50.974;4.968;2022-08-07T17:53:34;23.40;96.20
9975;DHT22;5028;50.974;4.968;2022-08-07T17:56:33;23.30;96.10
9975;DHT22;5028;50.974;4.968;2022-08-07T17:59:21;23.20;96.20
9975;DHT22;5028;50.974;4.968;2022-08-07T18:02:06;23.20;96.40
9975;DHT22;5028;50.974;4.968;2022-08-07T18:04:51;23.10;96.40
9975;DHT22;5028;50.974;4.968;2022-08-07T18:07:57;23.00;96.10
9975;DHT22;5028;50.974;4.968;2022-08-07T18:10:36;22.90;96.40
9975;DHT22;5028;50.974;4.968;2022-08-07T18:13:39;22.80;96.60
9975;DHT22;5028;50.974;4.968;2022-08-07T18:16:14;22.80;96.50